createdAt,value
2022-08-01T00:00:19.876Z,19.59
2022-08-01T00:05:27.489Z,19.54
2022-08-01T00:10:32.763Z,19.51
2022-08-01T00:15:41.414Z,19.47
2022-08-01T00:21:01.894Z,19.41
2022-08-01T00:26:06.765Z,19.33
2022-08-01T00:31:11.913Z,19.28
2022-08-01T00:36:19.424Z,19.20
2022-08-01T00:41:24.269Z,19.14
2022-08-01T00:46:29.174Z,19.09
2022-08-01T00:51:37.295Z,19.07
2022-08-01T00:56:42.199Z,19.06
2022-08-01T01:01:50.055Z,19.04
2022-08-01T01:07:08.405Z,19.00
2022-08-01T01:12:26.712Z,18.95
2022-08-01T01:17:49.736Z,18.91
2022-08-01T01:23:14.210Z,18.86
2022-08-01T01:28:27.787Z,18.84
2022-08-01T01:33:37.328Z,18.86
2022-08-01T01:38:54.870Z,18.85
2022-08-01T01:44:01.397Z,18.87
2022-08-01T01:49:11.380Z,18.85
2022-08-01T01:54:16.362Z,18.86
2022-08-01T01:59:25.768Z,18.87
2022-08-01T02:04:35.058Z,18.83
2022-08-01T02:09:41.661Z,18.82
2022-08-01T02:14:48.374Z,18.79
2022-08-01T02:19:57.450Z,18.75
2022-08-01T02:25:07.176Z,18.63
2022-08-01T02:30:16.042Z,18.60
2022-08-01T02:36:30.584Z,18.58
2022-08-01T02:41:25.893Z,18.58
2022-08-01T02:46:37.658Z,18.57
2022-08-01T02:51:44.224Z,18.56
2022-08-01T02:56:54.350Z,18.59
2022-08-01T03:02:01.007Z,18.55
2022-08-01T03:07:11.433Z,18.54
2022-08-01T03:12:21.853Z,18.55
2022-08-01T03:17:29.503Z,18.56
2022-08-01T03:22:36.840Z,18.53
2022-08-01T03:27:47.196Z,18.46
2022-08-01T03:32:52.122Z,18.37
2022-08-01T03:38:15.753Z,18.36
2022-08-01T03:43:30.608Z,18.36
2022-08-01T03:48:39.670Z,18.40
2022-08-01T03:53:46.261Z,18.46
2022-08-01T03:58:55.021Z,18.52
2022-08-01T04:04:02.595Z,18.56
2022-08-01T04:09:13.187Z,18.56
2022-08-01T04:14:21.216Z,18.59
2022-08-01T04:19:27.102Z,18.66
2022-08-01T04:24:34.453Z,18.71
2022-08-01T04:29:42.988Z,18.75
2022-08-01T04:34:50.430Z,18.78
2022-08-01T04:39:56.759Z,18.83
2022-08-01T04:45:05.635Z,18.85
2022-08-01T04:50:12.494Z,18.91
2022-08-01T04:55:18.316Z,18.94
2022-08-01T05:00:26.059Z,19.03
2022-08-01T05:05:31.650Z,19.09
2022-08-01T05:10:36.487Z,19.17
2022-08-01T05:15:43.934Z,19.22
2022-08-01T05:20:48.773Z,19.25
2022-08-01T05:25:56.733Z,19.31
2022-08-01T05:31:06.352Z,19.32
2022-08-01T05:36:11.262Z,19.36
2022-08-01T05:41:17.489Z,19.35
2022-08-01T05:46:27.448Z,19.38
2022-08-01T05:51:33.148Z,19.45
2022-08-01T05:56:40.071Z,19.48
2022-08-01T06:01:47.938Z,19.53
2022-08-01T06:06:55.894Z,19.58
2022-08-01T06:12:01.089Z,19.56
2022-08-01T06:17:08.692Z,19.53
2022-08-01T06:22:13.577Z,19.53
2022-08-01T06:27:39.697Z,19.56
2022-08-01T06:32:56.997Z,19.59
2022-08-01T06:38:02.149Z,19.49
2022-08-01T06:43:07.112Z,19.28
2022-08-01T06:48:14.524Z,19.20
2022-08-01T06:53:19.726Z,19.14
2022-08-01T06:58:31.637Z,18.80
2022-08-01T07:03:52.441Z,18.48
2022-08-01T07:09:05.762Z,18.30
2022-08-01T07:14:13.408Z,18.23
2022-08-01T07:19:21.938Z,18.14
2022-08-01T07:24:32.793Z,18.08
2022-08-01T07:29:40.938Z,18.14
2022-08-01T07:34:48.363Z,18.35
2022-08-01T07:39:53.217Z,18.56
2022-08-01T07:44:58.017Z,18.69
2022-08-01T07:50:13.770Z,18.78
2022-08-01T07:55:20.746Z,19.02
2022-08-01T08:00:25.679Z,19.33
2022-08-01T08:05:58.443Z,19.55
2022-08-01T08:10:59.021Z,19.83
2022-08-01T08:16:03.894Z,19.97
2022-08-01T08:21:11.760Z,20.01
2022-08-01T08:26:16.672Z,19.97
2022-08-01T08:31:25.393Z,20.08
2022-08-01T08:36:49.718Z,20.27
2022-08-01T08:41:54.902Z,20.37
2022-08-01T08:47:06.339Z,20.56
2022-08-01T08:52:18.361Z,20.97
2022-08-01T08:57:24.609Z,21.43
2022-08-01T09:02:29.450Z,21.74
2022-08-01T09:07:37.157Z,21.80
2022-08-01T09:12:42.806Z,21.86
2022-08-01T09:17:48.035Z,21.97
2022-08-01T09:22:55.414Z,21.91
2022-08-01T09:28:07.824Z,21.85
2022-08-01T09:33:21.592Z,22.23
2022-08-01T09:38:30.505Z,22.35
2022-08-01T09:43:35.695Z,22.50
2022-08-01T09:48:43.365Z,22.58
2022-08-01T09:53:56.881Z,22.51
2022-08-01T09:59:03.249Z,22.65
2022-08-01T10:04:13.678Z,22.65
2022-08-01T10:09:40.237Z,22.58
2022-08-01T10:14:46.962Z,22.65
2022-08-01T10:19:58.430Z,22.72
2022-08-01T10:25:09.228Z,22.81
2022-08-01T10:30:23.018Z,22.89
2022-08-01T10:35:46.655Z,22.92
2022-08-01T10:40:56.409Z,23.05
2022-08-01T10:46:02.335Z,22.99
2022-08-01T10:51:18.182Z,23.00
2022-08-01T10:56:27.617Z,22.99
2022-08-01T11:01:37.775Z,23.24
2022-08-01T11:06:56.380Z,23.39
2022-08-01T11:12:13.257Z,23.63
2022-08-01T11:17:38.020Z,23.94
2022-08-01T11:23:20.306Z,23.72
2022-08-01T11:28:35.606Z,23.72
2022-08-01T11:33:55.072Z,23.66
2022-08-01T11:39:16.212Z,23.70
2022-08-01T11:44:34.613Z,23.87
2022-08-01T11:49:56.163Z,23.97
2022-08-01T11:55:10.157Z,24.26
2022-08-01T12:00:21.316Z,24.33
2022-08-01T12:05:26.817Z,24.42
2022-08-01T12:10:49.671Z,24.50
2022-08-01T12:15:59.850Z,24.71
2022-08-01T12:21:07.727Z,24.81
2022-08-01T12:26:28.487Z,24.87
2022-08-01T12:31:39.842Z,24.84
2022-08-01T12:36:45.659Z,24.85
2022-08-01T12:41:50.674Z,24.91
2022-08-01T12:46:58.337Z,24.79
2022-08-01T12:52:04.491Z,25.04
2022-08-01T12:57:25.328Z,25.23
2022-08-01T13:02:39.182Z,25.43
2022-08-01T13:07:50.163Z,25.53
2022-08-01T13:12:56.918Z,25.64
2022-08-01T13:18:25.358Z,25.83
2022-08-01T13:24:02.120Z,26.02
2022-08-01T13:29:09.259Z,26.24
2022-08-01T13:34:17.251Z,26.59
2022-08-01T13:39:35.358Z,26.77
2022-08-01T13:44:40.251Z,26.84
2022-08-01T13:49:47.823Z,27.02
2022-08-01T13:54:52.743Z,27.06
2022-08-01T14:00:01.341Z,26.80
2022-08-01T14:05:10.131Z,26.31
2022-08-01T14:10:19.378Z,26.38
2022-08-01T14:15:36.810Z,26.72
2022-08-01T14:20:46.927Z,26.99
2022-08-01T14:26:05.267Z,27.10
2022-08-01T14:31:11.942Z,27.45
2022-08-01T14:36:29.324Z,27.48
2022-08-01T14:41:35.955Z,27.75
2022-08-01T14:46:57.946Z,27.99
2022-08-01T14:52:08.004Z,28.14
2022-08-01T14:57:13.799Z,27.61
2022-08-01T15:02:19.690Z,27.11
2022-08-01T15:07:28.193Z,26.85
2022-08-01T15:12:49.906Z,26.72
2022-08-01T15:17:55.593Z,26.73
2022-08-01T15:23:08.669Z,26.12
2022-08-01T15:28:14.450Z,26.67
2022-08-01T15:33:19.454Z,26.71
2022-08-01T15:38:27.412Z,27.23
2022-08-01T15:43:32.585Z,27.04
2022-08-01T15:48:40.106Z,26.87
2022-08-01T15:53:49.940Z,27.15
2022-08-01T15:58:55.703Z,27.25
2022-08-01T16:04:01.559Z,26.60
2022-08-01T16:09:10.045Z,26.12
2022-08-01T16:14:24.694Z,26.44
2022-08-01T16:19:29.916Z,26.72
2022-08-01T16:24:37.632Z,26.03
2022-08-01T16:29:42.533Z,25.68
2022-08-01T16:34:47.648Z,25.66
2022-08-01T16:39:56.318Z,25.72
2022-08-01T16:45:03.999Z,25.77
2022-08-01T16:50:17.765Z,25.80
2022-08-01T16:55:49.445Z,25.82
2022-08-01T17:00:56.324Z,25.88
2022-08-01T17:06:02.239Z,25.88
2022-08-01T17:11:09.701Z,25.83
2022-08-01T17:16:14.798Z,25.92
2022-08-01T17:21:19.642Z,25.96
2022-08-01T17:26:27.034Z,26.01
2022-08-01T17:31:31.960Z,26.08
2022-08-01T17:36:36.773Z,25.79
2022-08-01T17:41:44.720Z,25.92
2022-08-01T17:46:49.648Z,26.04
2022-08-01T17:51:54.806Z,26.01
2022-08-01T17:57:03.280Z,25.92
2022-08-01T18:02:13.314Z,25.67
2022-08-01T18:07:18.287Z,25.48
2022-08-01T18:12:25.884Z,25.20
2022-08-01T18:17:31.391Z,24.93
2022-08-01T18:22:36.218Z,24.70
2022-08-01T18:28:16.719Z,24.43
2022-08-01T18:33:08.977Z,24.26
2022-08-01T18:38:13.864Z,23.99
2022-08-01T18:43:21.684Z,23.86
2022-08-01T18:48:26.926Z,23.59
2022-08-01T18:53:39.553Z,23.49
2022-08-01T18:58:49.736Z,23.22
2022-08-01T19:03:54.673Z,22.95
2022-08-01T19:09:02.578Z,22.71
2022-08-01T19:14:17.165Z,22.55
2022-08-01T19:19:27.848Z,22.38
2022-08-01T19:24:33.986Z,22.15
2022-08-01T19:29:43.427Z,22.03
2022-08-01T19:34:58.960Z,21.92
2022-08-01T19:40:05.327Z,21.77
2022-08-01T19:45:14.311Z,21.65
2022-08-01T19:50:19.871Z,21.46
2022-08-01T19:55:39.612Z,21.31
2022-08-01T20:00:49.976Z,21.03
2022-08-01T20:05:54.881Z,20.89
2022-08-01T20:11:10.265Z,20.77
2022-08-01T20:16:33.854Z,20.71
2022-08-01T20:21:39.642Z,20.64
2022-08-01T20:26:44.884Z,20.59
2022-08-01T20:31:57.431Z,20.53
2022-08-01T20:37:02.345Z,20.47
2022-08-01T20:42:12.978Z,20.41
2022-08-01T20:47:21.839Z,20.37
2022-08-01T20:52:30.026Z,20.32
2022-08-01T20:57:35.661Z,20.26
2022-08-01T21:02:52.042Z,20.19
2022-08-01T21:08:05.937Z,20.11
2022-08-01T21:13:20.536Z,20.00
2022-08-01T21:18:36.347Z,19.94
2022-08-01T21:23:50.884Z,19.86
2022-08-01T21:28:58.295Z,19.77
2022-08-01T21:34:09.865Z,19.64
2022-08-01T21:39:15.414Z,19.56
2022-08-01T21:44:21.849Z,19.49
2022-08-01T21:49:36.419Z,19.34
2022-08-01T21:54:50.282Z,19.23
2022-08-01T22:00:06.568Z,19.16
2022-08-01T22:05:17.154Z,19.07
2022-08-01T22:10:23.474Z,19.00
2022-08-01T22:15:44.289Z,18.98
2022-08-01T22:20:54.313Z,18.91
2022-08-01T22:25:59.944Z,18.90
2022-08-01T22:31:06.889Z,18.86
2022-08-01T22:36:16.379Z,18.81
2022-08-01T22:41:23.699Z,18.76
2022-08-01T22:46:36.482Z,18.71
2022-08-01T22:51:55.757Z,18.68
2022-08-01T22:57:07.644Z,18.61
2022-08-01T23:02:17.381Z,18.54
2022-08-01T23:07:31.607Z,18.51
2022-08-01T23:12:36.908Z,18.47
2022-08-01T23:17:45.417Z,18.48
2022-08-01T23:22:54.253Z,18.45
2022-08-01T23:28:05.889Z,18.40
2022-08-01T23:33:11.939Z,18.37
2022-08-01T23:38:22.923Z,18.32
2022-08-01T23:43:28.404Z,18.27
2022-08-01T23:48:33.592Z,18.23
2022-08-01T23:53:41.155Z,18.20
2022-08-01T23:58:48.791Z,18.16
